createdAt,value
2017-12-22T00:00:20.408Z,0.00
2017-12-22T00:01:20.887Z,0.00
2017-12-22T00:02:19.815Z,0.00
2017-12-22T00:03:21.819Z,0.00
2017-12-22T00:04:21.241Z,0.00
2017-12-22T00:05:20.169Z,0.00
2017-12-22T00:06:20.573Z,0.00
2017-12-22T00:07:41.905Z,0.00
2017-12-22T00:08:43.084Z,0.00
2017-12-22T00:09:42.592Z,0.00
2017-12-22T00:10:43.038Z,0.00
2017-12-22T00:11:42.372Z,0.00
2017-12-22T00:12:42.633Z,0.00
2017-12-22T00:13:42.595Z,0.00
2017-12-22T00:14:43.518Z,0.00
2017-12-22T00:15:42.798Z,0.00
2017-12-22T00:16:42.645Z,0.00
2017-12-22T00:17:43.087Z,0.00
2017-12-22T00:18:43.106Z,0.00
2017-12-22T00:19:42.951Z,0.00
2017-12-22T00:20:43.141Z,0.00
2017-12-22T00:22:04.780Z,0.00
2017-12-22T00:23:04.701Z,0.00
2017-12-22T00:24:04.440Z,0.00
2017-12-22T00:25:05.167Z,0.00
2017-12-22T00:26:05.001Z,0.00
2017-12-22T00:27:05.702Z,0.00
2017-12-22T00:28:05.060Z,0.00
2017-12-22T00:29:05.573Z,0.00
2017-12-22T00:30:07.024Z,0.00
2017-12-22T00:31:04.774Z,0.00
2017-12-22T00:32:05.921Z,0.00
2017-12-22T00:33:04.977Z,0.00
2017-12-22T00:34:05.451Z,0.00
2017-12-22T00:35:04.599Z,0.00
2017-12-22T00:36:04.944Z,0.00
2017-12-22T00:37:05.227Z,0.00
2017-12-22T00:38:04.379Z,0.00
2017-12-22T00:39:05.343Z,0.00
2017-12-22T00:40:05.216Z,0.00
2017-12-22T00:41:26.967Z,0.00
2017-12-22T00:42:28.024Z,0.00
2017-12-22T00:43:27.622Z,0.00
2017-12-22T00:44:26.928Z,0.00
2017-12-22T00:45:27.796Z,0.00
2017-12-22T00:46:27.073Z,0.00
2017-12-22T00:47:27.401Z,0.00
2017-12-22T00:48:26.976Z,0.00
2017-12-22T00:49:27.654Z,0.00
2017-12-22T00:50:27.045Z,0.00
2017-12-22T00:51:27.412Z,0.00
2017-12-22T00:52:27.445Z,0.00
2017-12-22T00:53:27.532Z,0.00
2017-12-22T00:54:26.433Z,0.00
2017-12-22T00:55:27.826Z,0.00
2017-12-22T00:56:27.296Z,0.00
2017-12-22T00:57:27.373Z,0.00
2017-12-22T00:58:27.767Z,0.00
2017-12-22T00:59:48.386Z,0.00
2017-12-22T01:00:49.864Z,0.00
2017-12-22T01:01:49.207Z,0.00
2017-12-22T01:02:50.014Z,0.00
2017-12-22T01:03:49.330Z,0.00
2017-12-22T01:04:49.691Z,0.00
2017-12-22T01:05:48.707Z,0.00
2017-12-22T01:06:49.044Z,0.00
2017-12-22T01:07:49.896Z,0.00
2017-12-22T01:08:49.244Z,0.00
2017-12-22T01:09:49.430Z,0.00
2017-12-22T01:10:49.351Z,0.00
2017-12-22T01:11:49.838Z,0.00
2017-12-22T01:12:49.445Z,0.00
2017-12-22T01:13:50.174Z,0.00
2017-12-22T01:14:49.644Z,0.00
2017-12-22T01:15:49.003Z,0.00
2017-12-22T01:16:49.474Z,0.00
2017-12-22T01:17:49.180Z,0.00
2017-12-22T01:19:12.313Z,0.00
2017-12-22T01:20:13.819Z,0.00
2017-12-22T01:21:12.827Z,0.00
2017-12-22T01:22:13.164Z,0.00
2017-12-22T01:23:13.629Z,0.00
2017-12-22T01:24:13.438Z,0.00
2017-12-22T01:25:13.650Z,0.00
2017-12-22T01:26:13.100Z,0.00
2017-12-22T01:27:13.574Z,0.00
2017-12-22T01:28:13.936Z,0.00
2017-12-22T01:29:13.422Z,0.00
2017-12-22T01:30:13.862Z,0.00
2017-12-22T01:31:13.192Z,0.00
2017-12-22T01:32:13.335Z,0.00
2017-12-22T01:33:13.829Z,0.00
2017-12-22T01:34:35.775Z,0.00
2017-12-22T01:35:36.204Z,0.00
2017-12-22T01:36:35.156Z,0.00
2017-12-22T01:37:35.518Z,0.00
2017-12-22T01:38:35.838Z,0.00
2017-12-22T01:39:36.568Z,0.00
2017-12-22T01:40:35.769Z,0.00
2017-12-22T01:41:35.499Z,0.00
2017-12-22T01:42:36.174Z,0.00
2017-12-22T01:43:35.471Z,0.00
2017-12-22T01:44:35.623Z,0.00
2017-12-22T01:45:36.055Z,0.00
2017-12-22T01:46:35.557Z,0.00
2017-12-22T01:47:35.685Z,0.00
2017-12-22T01:48:35.955Z,0.00
2017-12-22T01:49:36.647Z,0.00
2017-12-22T01:50:36.123Z,0.00
2017-12-22T01:51:34.750Z,0.00
2017-12-22T01:52:35.657Z,0.00
2017-12-22T01:53:35.728Z,0.00
2017-12-22T01:54:35.790Z,0.00
2017-12-22T01:55:36.590Z,0.00
2017-12-22T01:56:35.646Z,0.00
2017-12-22T01:57:35.244Z,0.00
2017-12-22T01:58:35.601Z,0.00
2017-12-22T01:59:35.454Z,0.00
2017-12-22T02:00:36.169Z,0.00
2017-12-22T02:01:57.772Z,0.00
2017-12-22T02:02:58.097Z,0.00
2017-12-22T02:03:56.762Z,0.00
2017-12-22T02:04:57.564Z,0.00
2017-12-22T02:05:58.438Z,0.00
2017-12-22T02:06:57.811Z,0.00
2017-12-22T02:07:57.364Z,0.00
2017-12-22T02:08:57.100Z,0.00
2017-12-22T02:10:19.202Z,0.00
2017-12-22T02:11:19.377Z,0.00
2017-12-22T02:12:19.665Z,0.00
2017-12-22T02:13:19.987Z,0.00
2017-12-22T02:14:41.290Z,0.00
2017-12-22T02:15:41.104Z,0.00
2017-12-22T02:16:41.189Z,0.00
2017-12-22T02:17:42.437Z,0.00
2017-12-22T02:18:41.759Z,0.00
2017-12-22T02:19:42.074Z,0.00
2017-12-22T02:20:42.486Z,0.00
2017-12-22T02:21:41.624Z,0.00
2017-12-22T02:22:42.088Z,0.00
2017-12-22T02:23:40.938Z,0.00
2017-12-22T02:24:41.795Z,0.00
2017-12-22T02:25:41.657Z,0.00
2017-12-22T02:26:41.954Z,0.00
2017-12-22T02:27:42.336Z,0.00
2017-12-22T02:28:41.762Z,0.00
2017-12-22T02:29:42.181Z,0.00
2017-12-22T02:31:08.249Z,0.00
2017-12-22T02:32:10.006Z,0.00
2017-12-22T02:33:08.676Z,0.00
2017-12-22T02:34:08.926Z,0.00
2017-12-22T02:35:09.282Z,0.00
2017-12-22T02:36:09.622Z,0.00
2017-12-22T02:37:09.184Z,0.00
2017-12-22T02:38:09.466Z,0.00
2017-12-22T02:39:08.978Z,0.00
2017-12-22T02:40:09.451Z,0.00
2017-12-22T02:41:08.243Z,0.00
2017-12-22T02:42:09.644Z,0.00
2017-12-22T02:43:09.026Z,0.00
2017-12-22T02:44:09.855Z,0.00
2017-12-22T02:45:09.188Z,0.00
2017-12-22T02:46:09.672Z,0.00
2017-12-22T02:47:08.625Z,0.00
2017-12-22T02:48:09.036Z,0.00
2017-12-22T02:49:09.458Z,0.00
2017-12-22T02:50:08.490Z,0.00
2017-12-22T02:51:08.970Z,0.00
2017-12-22T02:52:09.450Z,0.00
2017-12-22T02:53:09.855Z,0.00
2017-12-22T02:54:09.271Z,0.00
2017-12-22T02:55:09.892Z,0.00
2017-12-22T02:56:08.799Z,0.00
2017-12-22T02:57:09.085Z,0.00
2017-12-22T02:58:08.678Z,0.00
2017-12-22T02:59:08.583Z,0.00
2017-12-22T03:00:09.122Z,0.00
2017-12-22T03:01:09.231Z,0.00
2017-12-22T03:02:09.670Z,0.00
2017-12-22T03:03:08.950Z,0.00
2017-12-22T03:04:08.631Z,0.00
2017-12-22T03:05:09.004Z,0.00
2017-12-22T03:06:08.751Z,0.00
2017-12-22T03:07:08.948Z,0.00
2017-12-22T03:08:08.785Z,0.00
2017-12-22T03:09:08.476Z,0.00
2017-12-22T03:10:08.359Z,0.00
2017-12-22T03:11:08.891Z,0.00
2017-12-22T03:12:09.376Z,0.00
2017-12-22T03:13:08.795Z,0.00
2017-12-22T03:14:08.597Z,0.00
2017-12-22T03:15:09.052Z,0.00
2017-12-22T03:16:08.903Z,0.00
2017-12-22T03:17:09.218Z,0.00
2017-12-22T03:18:09.164Z,0.00
2017-12-22T03:19:09.436Z,0.00
2017-12-22T03:20:08.416Z,0.00
2017-12-22T03:21:08.276Z,0.00
2017-12-22T03:22:08.655Z,0.00
2017-12-22T03:23:08.332Z,0.00
2017-12-22T03:24:08.992Z,0.00
2017-12-22T03:25:08.673Z,0.00
2017-12-22T03:26:09.074Z,0.00
2017-12-22T03:27:08.626Z,0.00
2017-12-22T03:28:08.512Z,0.00
2017-12-22T03:29:10.442Z,0.00
2017-12-22T03:30:08.172Z,0.00
2017-12-22T03:31:08.656Z,0.00
2017-12-22T03:32:08.595Z,0.00
2017-12-22T03:33:08.276Z,0.00
2017-12-22T03:34:09.496Z,0.00
2017-12-22T03:35:08.472Z,0.00
2017-12-22T03:36:08.940Z,0.00
2017-12-22T03:37:09.251Z,0.00
2017-12-22T03:38:08.212Z,0.00
2017-12-22T03:39:08.564Z,0.00
2017-12-22T03:40:09.295Z,0.00
2017-12-22T03:41:08.666Z,0.00
2017-12-22T03:42:08.653Z,0.00
2017-12-22T03:43:08.648Z,0.00
2017-12-22T03:44:08.284Z,0.00
2017-12-22T03:45:08.349Z,0.00
2017-12-22T03:46:08.535Z,0.00
2017-12-22T03:47:08.523Z,0.00
2017-12-22T03:48:08.453Z,0.00
2017-12-22T03:49:08.963Z,0.00
2017-12-22T03:50:09.619Z,0.00
2017-12-22T03:51:08.145Z,0.00
2017-12-22T03:52:07.839Z,0.00
2017-12-22T03:53:08.671Z,0.00
2017-12-22T03:54:08.415Z,0.00
2017-12-22T03:55:08.340Z,0.00
2017-12-22T03:56:08.120Z,0.00
2017-12-22T03:57:08.665Z,0.00
2017-12-22T03:58:09.107Z,0.00
2017-12-22T03:59:08.519Z,0.00
2017-12-22T04:00:08.772Z,0.00
2017-12-22T04:01:08.792Z,0.00
2017-12-22T04:02:08.726Z,0.00
2017-12-22T04:03:09.277Z,0.00
2017-12-22T04:04:08.446Z,0.00
2017-12-22T04:05:09.355Z,0.00
2017-12-22T04:06:08.732Z,0.00
2017-12-22T04:07:08.236Z,0.00
2017-12-22T04:08:08.580Z,0.00
2017-12-22T04:09:08.471Z,0.00
2017-12-22T04:10:09.132Z,0.00
2017-12-22T04:11:33.479Z,0.00
2017-12-22T04:12:33.838Z,0.00
2017-12-22T04:13:34.436Z,0.00
2017-12-22T04:14:33.414Z,0.00
2017-12-22T04:15:33.434Z,0.00
2017-12-22T04:16:33.019Z,0.00
2017-12-22T04:17:33.963Z,0.00
2017-12-22T04:18:34.546Z,0.00
2017-12-22T04:19:34.052Z,0.00
2017-12-22T04:20:33.885Z,0.00
2017-12-22T04:21:34.215Z,0.00
2017-12-22T04:22:33.656Z,0.00
2017-12-22T04:23:33.398Z,0.00
2017-12-22T04:24:33.889Z,0.00
2017-12-22T04:25:34.369Z,0.00
2017-12-22T04:26:34.057Z,0.00
2017-12-22T04:27:33.500Z,0.00
2017-12-22T04:28:33.511Z,0.00
2017-12-22T04:29:33.790Z,0.00
2017-12-22T04:30:34.172Z,0.00
2017-12-22T04:31:56.233Z,0.00
2017-12-22T04:32:55.802Z,0.00
2017-12-22T04:33:57.137Z,0.00
2017-12-22T04:34:56.429Z,0.00
2017-12-22T04:35:56.820Z,0.00
2017-12-22T04:36:57.616Z,0.00
2017-12-22T04:37:57.028Z,0.00
2017-12-22T04:38:56.049Z,0.00
2017-12-22T04:39:55.711Z,0.00
2017-12-22T04:40:57.142Z,0.00
2017-12-22T04:41:56.449Z,0.00
2017-12-22T04:42:57.431Z,0.00
2017-12-22T04:43:56.870Z,0.00
2017-12-22T04:45:18.489Z,0.00
2017-12-22T04:46:18.276Z,0.00
2017-12-22T04:47:18.670Z,0.00
2017-12-22T04:48:19.557Z,0.00
2017-12-22T04:49:18.985Z,0.00
2017-12-22T04:50:19.357Z,0.00
2017-12-22T04:51:18.805Z,0.00
2017-12-22T04:52:19.192Z,0.00
2017-12-22T04:53:17.820Z,0.00
2017-12-22T04:54:40.874Z,0.00
2017-12-22T04:56:02.371Z,0.00
2017-12-22T04:57:03.635Z,0.00
2017-12-22T04:58:02.918Z,0.00
2017-12-22T04:59:02.602Z,0.00
2017-12-22T05:00:03.979Z,0.00
2017-12-22T05:01:03.336Z,0.00
2017-12-22T05:02:03.656Z,0.00
2017-12-22T05:03:02.967Z,0.00
2017-12-22T05:04:02.658Z,0.00
2017-12-22T05:05:03.107Z,0.00
2017-12-22T05:06:03.356Z,0.00
2017-12-22T05:07:02.746Z,0.00
2017-12-22T05:08:02.542Z,0.00
2017-12-22T05:09:02.718Z,0.00
2017-12-22T05:10:02.622Z,0.00
2017-12-22T05:11:03.011Z,0.00
2017-12-22T05:12:05.089Z,0.00
2017-12-22T05:13:03.573Z,0.00
2017-12-22T05:14:03.030Z,0.00
2017-12-22T05:15:25.386Z,0.00
2017-12-22T05:16:26.058Z,0.00
2017-12-22T05:17:26.407Z,0.00
2017-12-22T05:18:25.804Z,0.00
2017-12-22T05:19:25.651Z,0.00
2017-12-22T05:20:26.230Z,0.00
2017-12-22T05:21:26.037Z,0.00
2017-12-22T05:22:26.418Z,0.00
2017-12-22T05:23:25.478Z,0.00
2017-12-22T05:24:25.949Z,0.00
2017-12-22T05:25:26.346Z,0.00
2017-12-22T05:26:26.626Z,0.00
2017-12-22T05:27:25.964Z,0.00
2017-12-22T05:28:26.761Z,0.00
2017-12-22T05:29:26.040Z,0.00
2017-12-22T05:30:47.296Z,0.00
2017-12-22T05:31:48.412Z,0.00
2017-12-22T05:32:48.698Z,0.00
2017-12-22T05:33:48.468Z,0.00
2017-12-22T05:34:48.786Z,0.00
2017-12-22T05:35:47.503Z,0.00
2017-12-22T05:36:48.774Z,0.00
2017-12-22T05:37:48.036Z,0.00
2017-12-22T05:38:48.760Z,0.00
2017-12-22T05:39:48.185Z,0.00
2017-12-22T05:40:47.929Z,0.00
2017-12-22T05:41:48.291Z,0.00
2017-12-22T05:42:48.789Z,0.00
2017-12-22T05:43:48.201Z,0.00
2017-12-22T05:44:48.677Z,0.00
2017-12-22T05:45:48.093Z,0.00
2017-12-22T05:46:48.248Z,0.00
2017-12-22T05:47:47.999Z,0.00
2017-12-22T05:48:48.242Z,0.00
2017-12-22T05:49:48.634Z,0.00
2017-12-22T05:50:47.917Z,0.00
2017-12-22T05:51:47.656Z,0.00
2017-12-22T05:52:47.237Z,0.00
2017-12-22T05:53:48.537Z,0.00
2017-12-22T05:54:47.325Z,0.00
2017-12-22T05:55:48.676Z,0.00
2017-12-22T05:56:47.566Z,0.00
2017-12-22T05:57:47.884Z,0.00
2017-12-22T05:58:47.648Z,0.00
2017-12-22T05:59:48.042Z,0.00
2017-12-22T06:00:48.520Z,0.00
2017-12-22T06:01:47.558Z,0.00
2017-12-22T06:02:48.826Z,0.00
2017-12-22T06:03:47.467Z,0.00
2017-12-22T06:04:47.566Z,0.00
2017-12-22T06:05:47.948Z,0.00
2017-12-22T06:06:48.751Z,0.00
2017-12-22T06:07:47.251Z,0.00
2017-12-22T06:08:48.728Z,0.00
2017-12-22T06:09:47.263Z,0.00
2017-12-22T06:10:48.304Z,0.00
2017-12-22T06:11:47.904Z,0.00
2017-12-22T06:12:48.068Z,0.00
2017-12-22T06:13:48.012Z,0.00
2017-12-22T06:14:48.373Z,0.00
2017-12-22T06:15:48.625Z,0.00
2017-12-22T06:16:48.039Z,0.00
2017-12-22T06:17:48.337Z,0.00
2017-12-22T06:18:49.145Z,0.00
2017-12-22T06:19:48.490Z,0.00
2017-12-22T06:20:48.778Z,0.00
2017-12-22T06:21:47.640Z,0.00
2017-12-22T06:22:47.212Z,0.00
2017-12-22T06:23:49.028Z,0.00
2017-12-22T06:24:48.202Z,0.00
2017-12-22T06:25:48.017Z,0.00
2017-12-22T06:26:47.758Z,0.00
2017-12-22T06:27:47.811Z,0.00
2017-12-22T06:28:47.712Z,0.00
2017-12-22T06:29:47.883Z,0.00
2017-12-22T06:30:48.229Z,0.00
2017-12-22T06:31:48.297Z,0.00
2017-12-22T06:32:48.752Z,0.00
2017-12-22T06:33:47.540Z,0.00
2017-12-22T06:34:48.427Z,0.00
2017-12-22T06:35:48.439Z,0.00
2017-12-22T06:36:47.883Z,0.00
2017-12-22T06:37:48.302Z,0.00
2017-12-22T06:38:48.082Z,0.00
2017-12-22T06:39:48.206Z,0.00
2017-12-22T06:40:47.939Z,0.00
2017-12-22T06:41:47.705Z,0.00
2017-12-22T06:42:48.007Z,0.00
2017-12-22T06:43:48.498Z,0.00
2017-12-22T06:44:48.019Z,0.00
2017-12-22T06:45:48.029Z,0.00
2017-12-22T06:46:48.522Z,0.00
2017-12-22T06:47:47.548Z,0.00
2017-12-22T06:48:48.048Z,0.00
2017-12-22T06:49:48.452Z,0.00
2017-12-22T06:50:47.879Z,0.00
2017-12-22T06:51:48.738Z,1.00
2017-12-22T06:52:47.695Z,1.00
2017-12-22T06:53:48.028Z,1.00
2017-12-22T06:54:47.853Z,0.00
2017-12-22T06:55:47.982Z,1.00
2017-12-22T06:56:48.405Z,1.00
2017-12-22T06:57:48.399Z,1.00
2017-12-22T06:58:47.917Z,2.00
2017-12-22T06:59:47.845Z,1.00
2017-12-22T07:00:48.344Z,2.00
2017-12-22T07:01:48.665Z,2.00
2017-12-22T07:02:48.394Z,3.00
2017-12-22T07:03:48.167Z,3.00
2017-12-22T07:04:47.900Z,3.00
2017-12-22T07:05:47.935Z,4.00
2017-12-22T07:06:48.221Z,4.00
2017-12-22T07:07:48.289Z,6.00
2017-12-22T07:08:54.321Z,7.00
2017-12-22T07:09:48.741Z,7.00
2017-12-22T07:10:47.296Z,9.00
2017-12-22T07:11:47.332Z,10.00
2017-12-22T07:12:48.481Z,11.00
2017-12-22T07:13:47.160Z,14.00
2017-12-22T07:14:47.820Z,16.00
2017-12-22T07:15:48.817Z,19.00
2017-12-22T07:16:48.869Z,23.00
2017-12-22T07:17:48.005Z,29.00
2017-12-22T07:19:10.470Z,37.00
2017-12-22T07:20:34.138Z,45.00
2017-12-22T07:21:34.549Z,53.00
2017-12-22T07:22:34.559Z,50.00
2017-12-22T07:23:35.030Z,50.00
2017-12-22T07:24:34.573Z,59.00
2017-12-22T07:25:35.028Z,70.00
2017-12-22T07:26:34.293Z,84.00
2017-12-22T07:28:19.043Z,90.00
2017-12-22T07:29:19.457Z,93.00
2017-12-22T07:30:19.918Z,117.00
2017-12-22T07:31:19.725Z,120.00
2017-12-22T07:32:19.444Z,112.00
2017-12-22T07:33:48.500Z,140.00
2017-12-22T07:34:48.357Z,148.00
2017-12-22T07:35:48.745Z,193.00
2017-12-22T07:36:49.232Z,234.00
2017-12-22T07:37:49.623Z,206.00
2017-12-22T07:38:49.032Z,204.00
2017-12-22T07:39:48.902Z,234.00
2017-12-22T07:40:48.702Z,251.00
2017-12-22T07:41:49.178Z,277.00
2017-12-22T07:42:48.734Z,309.00
2017-12-22T07:43:48.411Z,300.00
2017-12-22T07:44:49.267Z,301.00
2017-12-22T07:45:48.781Z,320.00
2017-12-22T07:46:49.121Z,337.00
2017-12-22T07:47:48.745Z,381.00
2017-12-22T07:48:49.043Z,462.00
2017-12-22T07:49:49.366Z,556.00
2017-12-22T07:50:48.887Z,608.00
2017-12-22T07:51:49.282Z,585.00
2017-12-22T07:52:48.885Z,556.00
2017-12-22T07:53:48.957Z,529.00
2017-12-22T07:54:49.440Z,514.00
2017-12-22T07:55:48.961Z,526.00
2017-12-22T07:56:49.477Z,545.00
2017-12-22T07:58:11.197Z,558.00
2017-12-22T07:59:11.873Z,580.00
2017-12-22T08:00:33.356Z,651.00
2017-12-22T08:01:33.456Z,723.00
2017-12-22T08:02:33.914Z,853.00
2017-12-22T08:03:33.284Z,863.00
2017-12-22T08:04:33.029Z,832.00
2017-12-22T08:05:33.055Z,844.00
2017-12-22T08:06:32.799Z,878.00
2017-12-22T08:07:33.255Z,842.00
2017-12-22T08:08:33.241Z,851.00
2017-12-22T08:09:33.535Z,834.00
2017-12-22T08:10:34.028Z,890.00
2017-12-22T08:11:33.834Z,1055.00
2017-12-22T08:12:55.454Z,1345.00
2017-12-22T08:13:56.204Z,1304.00
2017-12-22T08:14:55.628Z,1228.00
2017-12-22T08:15:55.764Z,1257.00
2017-12-22T08:16:56.436Z,1294.00
2017-12-22T08:17:55.224Z,1336.00
2017-12-22T08:18:55.890Z,1268.00
2017-12-22T08:19:56.445Z,1261.00
2017-12-22T08:20:56.113Z,1338.00
2017-12-22T08:21:55.242Z,1229.00
2017-12-22T08:22:54.915Z,1142.00
2017-12-22T08:23:56.355Z,1252.00
2017-12-22T08:24:55.597Z,1305.00
2017-12-22T08:25:56.584Z,1272.00
2017-12-22T08:26:55.996Z,1376.00
2017-12-22T08:28:17.533Z,1378.00
2017-12-22T08:29:18.307Z,1324.00
2017-12-22T08:30:17.960Z,1291.00
2017-12-22T08:31:17.484Z,1359.00
2017-12-22T08:32:18.544Z,1386.00
2017-12-22T08:33:18.231Z,1440.00
2017-12-22T08:34:17.822Z,1544.00
2017-12-22T08:35:18.670Z,1593.00
2017-12-22T08:36:19.190Z,1743.00
2017-12-22T08:37:18.241Z,1824.00
2017-12-22T08:38:17.818Z,1886.00
2017-12-22T08:39:18.318Z,2164.00
2017-12-22T08:40:50.029Z,2661.00
2017-12-22T08:41:43.620Z,2524.00
2017-12-22T08:42:42.750Z,2620.00
2017-12-22T08:43:43.406Z,2279.00
2017-12-22T08:44:42.422Z,2207.00
2017-12-22T08:45:43.162Z,2372.00
2017-12-22T08:46:42.667Z,2451.00
2017-12-22T08:47:43.531Z,2152.00
2017-12-22T08:48:42.985Z,2005.00
2017-12-22T08:49:43.209Z,2141.00
2017-12-22T08:50:42.593Z,2215.00
2017-12-22T08:51:43.054Z,2315.00
2017-12-22T08:52:42.709Z,2505.00
2017-12-22T08:53:43.455Z,2646.00
2017-12-22T08:54:43.015Z,2585.00
2017-12-22T08:55:43.224Z,2532.00
2017-12-22T08:56:43.579Z,2517.00
2017-12-22T08:57:43.091Z,2400.00
2017-12-22T08:58:42.013Z,2289.00
2017-12-22T08:59:43.722Z,2382.00
2017-12-22T09:00:43.298Z,2481.00
2017-12-22T09:01:43.001Z,2283.00
2017-12-22T09:02:42.857Z,2111.00
2017-12-22T09:03:43.361Z,1985.00
2017-12-22T09:04:43.074Z,2156.00
2017-12-22T09:05:43.295Z,2461.00
2017-12-22T09:06:43.114Z,2451.00
2017-12-22T09:07:42.756Z,2245.00
2017-12-22T09:08:43.860Z,2024.00
2017-12-22T09:09:43.813Z,1881.00
2017-12-22T09:10:44.083Z,1782.00
2017-12-22T09:11:43.727Z,1773.00
2017-12-22T09:12:43.594Z,1770.00
2017-12-22T09:13:43.133Z,1753.00
2017-12-22T09:14:42.005Z,1757.00
2017-12-22T09:15:43.795Z,1900.00
2017-12-22T09:16:44.023Z,1951.00
2017-12-22T09:17:42.792Z,2009.00
2017-12-22T09:18:43.000Z,2153.00
2017-12-22T09:19:43.069Z,2313.00
2017-12-22T09:21:28.516Z,2982.00
2017-12-22T09:22:29.893Z,3126.00
2017-12-22T09:23:29.606Z,3143.00
2017-12-22T09:24:29.377Z,3165.00
2017-12-22T09:25:29.156Z,2887.00
2017-12-22T09:26:29.288Z,2693.00
2017-12-22T09:27:30.323Z,2867.00
2017-12-22T09:28:29.639Z,3187.00
2017-12-22T09:29:29.028Z,3431.00
2017-12-22T09:30:29.772Z,3648.00
2017-12-22T09:31:29.433Z,3643.00
2017-12-22T09:32:30.716Z,3335.00
2017-12-22T09:33:29.374Z,3538.00
2017-12-22T09:34:29.957Z,3795.00
2017-12-22T09:35:29.813Z,4027.00
2017-12-22T09:36:28.607Z,4442.00
2017-12-22T09:37:29.185Z,4121.00
2017-12-22T09:38:30.152Z,4104.00
2017-12-22T09:39:29.871Z,4392.00
2017-12-22T09:40:29.686Z,4118.00
2017-12-22T09:41:29.261Z,4147.00
2017-12-22T09:42:29.537Z,4308.00
2017-12-22T09:43:29.155Z,4275.00
2017-12-22T09:44:29.503Z,4850.00
2017-12-22T09:45:28.269Z,4995.00
2017-12-22T09:46:29.288Z,5095.00
2017-12-22T09:47:30.405Z,4829.00
2017-12-22T09:48:30.056Z,4743.00
2017-12-22T09:49:30.332Z,4798.00
2017-12-22T09:50:29.307Z,4563.00
2017-12-22T09:51:30.046Z,4608.00
2017-12-22T09:52:29.778Z,4894.00
2017-12-22T09:53:29.260Z,4803.00
2017-12-22T09:54:29.876Z,5202.00
2017-12-22T09:55:29.793Z,5734.00
2017-12-22T09:56:29.916Z,5497.00
2017-12-22T09:57:29.481Z,5587.00
2017-12-22T09:58:28.996Z,5455.00
2017-12-22T09:59:28.699Z,5347.00
2017-12-22T10:00:28.546Z,5428.00
2017-12-22T10:01:28.882Z,5384.00
2017-12-22T10:02:29.053Z,5744.00
2017-12-22T10:03:29.373Z,6322.00
2017-12-22T10:04:30.488Z,6841.00
2017-12-22T10:05:29.250Z,7099.00
2017-12-22T10:06:30.234Z,7314.00
2017-12-22T10:07:29.808Z,7475.00
2017-12-22T10:08:29.559Z,7503.00
2017-12-22T10:09:29.563Z,7853.00
2017-12-22T10:10:28.512Z,7632.00
2017-12-22T10:11:29.459Z,7121.00
2017-12-22T10:12:29.204Z,6721.00
2017-12-22T10:13:29.739Z,6491.00
2017-12-22T10:14:28.860Z,6215.00
2017-12-22T10:15:29.437Z,5980.00
2017-12-22T10:16:28.596Z,5892.00
2017-12-22T10:18:13.787Z,5827.00
2017-12-22T10:19:14.576Z,5817.00
2017-12-22T10:20:14.794Z,5876.00
2017-12-22T10:21:13.732Z,6015.00
2017-12-22T10:22:13.941Z,6107.00
2017-12-22T10:23:15.040Z,6048.00
2017-12-22T10:24:14.218Z,5859.00
2017-12-22T10:25:13.623Z,5749.00
2017-12-22T10:26:15.723Z,5926.00
2017-12-22T10:27:15.296Z,6229.00
2017-12-22T10:28:37.792Z,5987.00
2017-12-22T10:29:36.628Z,5629.00
2017-12-22T10:30:36.801Z,5424.00
2017-12-22T10:31:38.207Z,5310.00
2017-12-22T10:32:37.524Z,5629.00
2017-12-22T10:33:38.333Z,5854.00
2017-12-22T10:34:37.777Z,5828.00
2017-12-22T10:35:37.270Z,5628.00
2017-12-22T10:36:37.519Z,5855.00
2017-12-22T10:37:37.047Z,6615.00
2017-12-22T10:38:36.752Z,7145.00
2017-12-22T10:39:59.747Z,6798.00
2017-12-22T10:40:59.693Z,6376.00
2017-12-22T10:42:00.039Z,6266.00
2017-12-22T10:43:00.560Z,6753.00
2017-12-22T10:44:01.170Z,7164.00
2017-12-22T10:45:00.550Z,7862.00
2017-12-22T10:45:59.351Z,8432.00
2017-12-22T10:47:02.580Z,8325.00
2017-12-22T10:48:00.530Z,8240.00
2017-12-22T10:48:59.426Z,7836.00
2017-12-22T10:50:00.699Z,7572.00
2017-12-22T10:50:59.624Z,7809.00
2017-12-22T10:52:21.706Z,7884.00
2017-12-22T10:53:22.306Z,7296.00
2017-12-22T10:54:21.968Z,7244.00
2017-12-22T10:55:22.107Z,7175.00
2017-12-22T10:56:21.770Z,7223.00
2017-12-22T10:57:22.550Z,7222.00
2017-12-22T10:58:22.198Z,7006.00
2017-12-22T10:59:21.332Z,6941.00
2017-12-22T11:00:21.813Z,7153.00
2017-12-22T11:01:22.025Z,7509.00
2017-12-22T11:02:21.716Z,7433.00
2017-12-22T11:03:22.413Z,6992.00
2017-12-22T11:04:21.665Z,6923.00
2017-12-22T11:05:21.974Z,6891.00
2017-12-22T11:06:21.840Z,7136.00
2017-12-22T11:07:21.888Z,7730.00
2017-12-22T11:08:22.020Z,8113.00
2017-12-22T11:09:21.653Z,7901.00
2017-12-22T11:10:22.143Z,7871.00
2017-12-22T11:11:21.767Z,7862.00
2017-12-22T11:12:22.235Z,7756.00
2017-12-22T11:13:21.733Z,7696.00
2017-12-22T11:14:21.491Z,8046.00
2017-12-22T11:15:21.622Z,8206.00
2017-12-22T11:16:22.656Z,7457.00
2017-12-22T11:17:21.832Z,6973.00
2017-12-22T11:18:22.466Z,7517.00
2017-12-22T11:19:22.067Z,7713.00
2017-12-22T11:20:21.670Z,7780.00
2017-12-22T11:21:46.516Z,6967.00
2017-12-22T11:22:47.124Z,6713.00
2017-12-22T11:23:45.820Z,6575.00
2017-12-22T11:24:45.995Z,6964.00
2017-12-22T11:25:46.820Z,7481.00
2017-12-22T11:26:47.877Z,7896.00
2017-12-22T11:27:47.548Z,8356.00
2017-12-22T11:28:47.351Z,9424.00
2017-12-22T11:29:47.131Z,10441.00
2017-12-22T11:30:46.670Z,10377.00
2017-12-22T11:31:47.161Z,9946.00
2017-12-22T11:32:46.371Z,9586.00
2017-12-22T11:33:46.996Z,9101.00
2017-12-22T11:34:46.593Z,8702.00
2017-12-22T11:35:46.776Z,7907.00
2017-12-22T11:36:47.372Z,7024.00
2017-12-22T11:37:47.415Z,6347.00
2017-12-22T11:38:47.646Z,5988.00
2017-12-22T11:39:46.616Z,6252.00
2017-12-22T11:40:46.636Z,6841.00
2017-12-22T11:41:47.069Z,7568.00
2017-12-22T11:42:46.280Z,8120.00
2017-12-22T11:43:47.141Z,8566.00
2017-12-22T11:45:08.332Z,8864.00
2017-12-22T11:46:09.664Z,9126.00
2017-12-22T11:47:09.392Z,8592.00
2017-12-22T11:48:31.045Z,7295.00
2017-12-22T11:49:32.491Z,6575.00
2017-12-22T11:50:33.815Z,6193.00
2017-12-22T11:51:31.896Z,6080.00
2017-12-22T11:52:33.266Z,6097.00
2017-12-22T11:53:32.841Z,5965.00
2017-12-22T11:54:56.314Z,5893.00
2017-12-22T11:55:55.306Z,5862.00
2017-12-22T11:56:55.119Z,5939.00
2017-12-22T11:57:55.022Z,6223.00
2017-12-22T11:58:55.289Z,6536.00
2017-12-22T11:59:55.280Z,6622.00
2017-12-22T12:00:54.552Z,6746.00
2017-12-22T12:01:55.289Z,6847.00
2017-12-22T12:02:54.407Z,6964.00
2017-12-22T12:03:54.714Z,7150.00
2017-12-22T12:04:55.061Z,7381.00
2017-12-22T12:05:56.393Z,7764.00
2017-12-22T12:06:54.979Z,7729.00
2017-12-22T12:07:55.642Z,7716.00
2017-12-22T12:08:55.480Z,7149.00
2017-12-22T12:09:55.250Z,6580.00
2017-12-22T12:10:55.241Z,6178.00
2017-12-22T12:11:55.872Z,5957.00
2017-12-22T12:12:56.574Z,5924.00
2017-12-22T12:13:54.677Z,5949.00
2017-12-22T12:14:55.266Z,6092.00
2017-12-22T12:15:54.858Z,6139.00
2017-12-22T12:16:55.270Z,6431.00
2017-12-22T12:17:55.253Z,6358.00
2017-12-22T12:18:54.616Z,6315.00
2017-12-22T12:19:55.117Z,6395.00
2017-12-22T12:20:56.052Z,6479.00
2017-12-22T12:21:55.998Z,6463.00
2017-12-22T12:22:55.503Z,6174.00
2017-12-22T12:23:55.188Z,6012.00
2017-12-22T12:24:54.621Z,6032.00
2017-12-22T12:25:55.685Z,6205.00
2017-12-22T12:26:55.135Z,6319.00
2017-12-22T12:27:54.713Z,6138.00
2017-12-22T12:28:54.724Z,6040.00
2017-12-22T12:29:54.648Z,6510.00
2017-12-22T12:30:54.600Z,6896.00
2017-12-22T12:31:55.641Z,7325.00
2017-12-22T12:32:55.267Z,7165.00
2017-12-22T12:33:54.794Z,7037.00
2017-12-22T12:34:55.458Z,6578.00
2017-12-22T12:35:55.090Z,6590.00
2017-12-22T12:36:55.340Z,6959.00
2017-12-22T12:37:54.852Z,7219.00
2017-12-22T12:38:55.505Z,7468.00
2017-12-22T12:39:54.747Z,7652.00
2017-12-22T12:40:54.758Z,7550.00
2017-12-22T12:41:55.389Z,7045.00
2017-12-22T12:42:54.683Z,7043.00
2017-12-22T12:43:54.622Z,6916.00
2017-12-22T12:44:54.697Z,7144.00
2017-12-22T12:45:55.498Z,7185.00
2017-12-22T12:46:54.862Z,7482.00
2017-12-22T12:47:55.679Z,7682.00
2017-12-22T12:49:19.212Z,7698.00
2017-12-22T12:50:19.248Z,8047.00
2017-12-22T12:51:18.756Z,8295.00
2017-12-22T12:52:18.773Z,8053.00
2017-12-22T12:53:19.549Z,7998.00
2017-12-22T12:54:20.154Z,7866.00
2017-12-22T12:55:42.719Z,7815.00
2017-12-22T12:56:43.388Z,7537.00
2017-12-22T12:57:42.821Z,7273.00
2017-12-22T12:58:44.826Z,7052.00
2017-12-22T12:59:43.553Z,6829.00
2017-12-22T13:01:05.483Z,6542.00
2017-12-22T13:02:05.679Z,6392.00